Thunder radar more information blitzortung!


Radar de pluja more information rain snow radar


Visita la nostra xarxa de llocs de meteo:

Template documentation
and downloads

And another site



No particular awareness of the weather is required.    There are no Weather-warnings

Pagina Historial Weather Underground text

Diari Resum Juny 21, 2017 Unitats:  Imperial    Mètric   Tant
« Previous Dia
SegĂźent Dia »
Diari Setmana Mensual Anual Personalitzada
  Maxima: Minima: Media:
Temperatura: TemperatureC °F 20.9 °F 28.6 °F
Punt de rosada: DewpointC °F 13.1 °F 15.9 °F
Humitat: Humidity % 35 % 47 %
Wind Speed: WindSpeedKMH mph 0.0 mph 6.9 mph
RĂ fegues de vent: WindSpeedGustKMH mph - -
Vent:- - SW
Pression baro: PressurehPa in 1012.8 in -
Precipitacions: 0.0 in    
Historical Graphs
 
 
Dades de taula per Juny 21, 2017
Temps Temperatura Punt de rosada Pression baro Vent Wind Speed RĂ fegues de vent Humitat Rainfall Rate (Hourly)
TemperatureC °F DewpointC °F PressurehPa in Calm     Humidity % HourlyPrecipMM in
00:04 23.5 °F 15.0 °F 1015.8 in West 5.6 mph 5.6 mph 59 % 0.0 in
00:05 22.0 °F 13.9 °F 1013.8 in WSW 3.2 mph 6.4 mph 60 % 0.0 in
00:09 23.4 °F 14.9 °F 1015.8 in WSW 7.4 mph 7.4 mph 59 % 0.0 in
00:15 22.0 °F 13.6 °F 1013.8 in West 3.2 mph 3.2 mph 59 % 0.0 in
00:25 22.0 °F 13.3 °F 1013.8 in West 3.2 mph 3.2 mph 58 % 0.0 in
00:35 21.9 °F 13.5 °F 1013.8 in Calm   3.2 mph 59 % 0.0 in
00:45 21.7 °F 13.3 °F 1013.8 in WNW 1.6 mph 3.2 mph 59 % 0.0 in
01:05 21.6 °F 13.2 °F 1013.8 in Calm   3.2 mph 59 % 0.0 in
01:15 21.6 °F 13.5 °F 1014.8 in NW 1.6 mph 3.2 mph 60 % 0.0 in
01:25 21.2 °F 13.1 °F 1013.8 in Calm   1.6 mph 60 % 0.0 in
01:35 21.1 °F 13.1 °F 1013.8 in North 3.2 mph 3.2 mph 60 % 0.0 in
01:45 20.9 °F 13.1 °F 1013.8 in NE 1.6 mph 3.2 mph 61 % 0.0 in
01:55 20.9 °F 13.1 °F 1014.8 in NNE 1.6 mph 1.6 mph 61 % 0.0 in
02:05 21.1 °F 13.3 °F 1014.8 in North 3.2 mph 3.2 mph 61 % 0.0 in
02:15 21.2 °F 13.4 °F 1013.8 in NNE 1.6 mph 4.8 mph 61 % 0.0 in
02:25 21.5 °F 13.7 °F 1014.8 in North 1.6 mph 1.6 mph 61 % 0.0 in
02:35 21.1 °F 13.3 °F 1014.8 in West 1.6 mph 3.2 mph 61 % 0.0 in
02:45 22.0 °F 13.9 °F 1014.8 in West 1.6 mph 4.8 mph 60 % 0.0 in
02:55 22.1 °F 13.7 °F 1014.8 in NE 3.2 mph 4.8 mph 59 % 0.0 in
03:05 22.6 °F 14.2 °F 1014.8 in Calm   3.2 mph 59 % 0.0 in
03:15 23.2 °F 14.5 °F 1014.8 in Calm   4.8 mph 58 % 0.0 in
03:25 23.5 °F 14.5 °F 1014.8 in NE 1.6 mph 3.2 mph 57 % 0.0 in
03:35 23.9 °F 14.9 °F 1014.8 in ENE 1.6 mph 3.2 mph 57 % 0.0 in
03:45 24.0 °F 14.4 °F 1014.8 in Calm   4.8 mph 55 % 0.0 in
03:55 24.8 °F 15.2 °F 1014.8 in NNE 1.6 mph 3.2 mph 55 % 0.0 in
04:05 24.7 °F 14.8 °F 1014.8 in SSW 3.2 mph 4.8 mph 54 % 0.0 in
04:15 24.9 °F 14.9 °F 1014.8 in SW 1.6 mph 4.8 mph 54 % 0.0 in
04:25 25.9 °F 15.3 °F 1014.8 in SSW 1.6 mph 4.8 mph 52 % 0.0 in
04:35 26.4 °F 15.4 °F 1014.8 in SSE 3.2 mph 3.2 mph 51 % 0.0 in
04:45 26.4 °F 15.4 °F 1014.8 in SSE 3.2 mph 4.8 mph 51 % 0.0 in
04:55 27.0 °F 15.7 °F 1014.8 in ESE 1.6 mph 3.2 mph 50 % 0.0 in
05:05 27.0 °F 15.7 °F 1014.8 in NW 3.2 mph 6.4 mph 50 % 0.0 in
05:15 27.7 °F 16.0 °F 1014.8 in SW 3.2 mph 3.2 mph 49 % 0.0 in
05:25 28.0 °F 15.9 °F 1014.8 in Calm   3.2 mph 48 % 0.0 in
05:35 29.0 °F 16.6 °F 1014.8 in SE 1.6 mph 3.2 mph 47 % 0.0 in
05:45 29.2 °F 16.4 °F 1014.8 in SSW 1.6 mph 4.8 mph 46 % 0.0 in
10:47 29.9 °F 16.7 °F 1014.8 in East 4.2 mph 4.2 mph 45 % 0.0 in
10:52 30.1 °F 16.8 °F 1014.8 in SW 3.7 mph 3.7 mph 45 % 0.0 in
10:57 30.0 °F 16.8 °F 1014.8 in SW 3.7 mph 3.7 mph 45 % 0.0 in
11:02 30.3 °F 16.7 °F 1014.8 in SSE 5.6 mph 5.6 mph 44 % 0.0 in
11:07 30.5 °F 16.9 °F 1014.8 in SW 3.7 mph   44 % 0.0 in
11:12 30.8 °F 17.1 °F 1014.8 in SSW 3.9 mph 3.9 mph 44 % 0.0 in
11:17 30.8 °F 17.1 °F 1014.8 in SSW 5.6 mph 5.6 mph 44 % 0.0 in
11:22 30.7 °F 16.7 °F 1014.8 in SW 7.4 mph 7.4 mph 43 % 0.0 in
11:27 30.9 °F 16.9 °F 1014.8 in WSW 5.6 mph 5.6 mph 43 % 0.0 in
11:32 30.8 °F 16.4 °F 1014.8 in ENE 5.6 mph 5.6 mph 42 % 0.0 in
11:37 30.8 °F 16.4 °F 1014.8 in SW 9.3 mph 9.3 mph 42 % 0.0 in
11:42 30.7 °F 16.3 °F 1014.8 in SSW 7.4 mph 7.4 mph 42 % 0.0 in
11:47 31.2 °F 16.4 °F 1014.8 in WSW 5.6 mph 5.6 mph 41 % 0.0 in
11:52 31.8 °F 16.9 °F 1014.8 in SW 5.6 mph 5.6 mph 41 % 0.0 in
11:57 32.4 °F 17.4 °F 1014.8 in WNW 7.4 mph 7.4 mph 41 % 0.0 in
12:02 32.4 °F 17.1 °F 1014.8 in WSW 9.3 mph 9.3 mph 40 % 0.0 in
12:07 32.3 °F 16.6 °F 1014.8 in SW 6.4 mph 6.4 mph 39 % 0.0 in
12:12 32.6 °F 16.8 °F 1014.8 in SW 3.7 mph 3.7 mph 39 % 0.0 in
12:17 32.5 °F 16.3 °F 1014.8 in SSE 7.4 mph 7.4 mph 38 % 0.0 in
12:22 33.1 °F 16.4 °F 1014.8 in SE 9.0 mph 9.0 mph 37 % 0.0 in
12:27 33.1 °F 16.4 °F 1014.8 in East 5.6 mph 5.6 mph 37 % 0.0 in
12:32 33.9 °F 17.2 °F 1013.8 in WSW 7.4 mph 7.4 mph 37 % 0.0 in
12:37 34.2 °F 17.4 °F 1013.8 in West 9.3 mph 9.3 mph 37 % 0.0 in
12:42 34.1 °F 17.3 °F 1013.8 in West 7.4 mph 7.4 mph 37 % 0.0 in
12:47 33.7 °F 16.6 °F 1014.8 in WSW 11.1 mph 11.1 mph 36 % 0.0 in
12:52 34.3 °F 16.7 °F 1014.8 in ESE 7.4 mph 7.4 mph 35 % 0.0 in
12:57 34.7 °F 17.4 °F 1014.8 in SW 4.7 mph 4.7 mph 36 % 0.0 in
13:02 34.8 °F 17.9 °F 1013.8 in SW 5.6 mph 5.6 mph 37 % 0.0 in
13:08 34.2 °F 17.4 °F 1013.8 in SSW 7.4 mph 7.4 mph 37 % 0.0 in
13:13 35.0 °F 17.3 °F 1013.8 in SW 7.6 mph 7.6 mph 35 % 0.0 in
13:18 34.7 °F 17.4 °F 1014.8 in SSW 7.4 mph 7.4 mph 36 % 0.0 in
13:23 34.5 °F 17.7 °F 1014.8 in SW 7.6 mph 7.6 mph 37 % 0.0 in
13:28 34.7 °F 17.9 °F 1014.8 in WSW 13.0 mph 13.0 mph 37 % 0.0 in
13:33 34.5 °F 17.7 °F 1013.8 in SW 7.4 mph 7.4 mph 37 % 0.0 in
13:38 35.1 °F 17.8 °F 1013.8 in SW 9.3 mph 9.3 mph 36 % 0.0 in
13:43 35.1 °F 17.8 °F 1013.8 in SSW 5.0 mph 5.0 mph 36 % 0.0 in
13:48 34.4 °F 17.6 °F 1013.8 in SSW 14.8 mph 14.8 mph 37 % 0.0 in
13:53 33.8 °F 17.5 °F 1013.8 in SW 20.4 mph 20.4 mph 38 % 0.0 in
13:58 34.0 °F 17.7 °F 1013.8 in SW 14.8 mph 14.8 mph 38 % 0.0 in
14:03 33.8 °F 17.5 °F 1013.8 in WSW 9.3 mph 9.3 mph 38 % 0.0 in
14:08 33.3 °F 17.1 °F 1013.8 in SW 13.0 mph 13.0 mph 38 % 0.0 in
14:13 33.5 °F 17.2 °F 1013.8 in WNW 11.1 mph 11.1 mph 38 % 0.0 in
14:18 33.6 °F 17.3 °F 1013.8 in SW 13.0 mph 13.0 mph 38 % 0.0 in
14:23 33.6 °F 17.3 °F 1013.8 in SW 11.1 mph 11.1 mph 38 % 0.0 in
14:28 33.4 °F 17.2 °F 1013.8 in SSW 16.7 mph 16.7 mph 38 % 0.0 in
14:33 33.4 °F 17.2 °F 1012.8 in WSW 14.8 mph 14.8 mph 38 % 0.0 in
14:38 33.3 °F 17.1 °F 1012.8 in West 13.0 mph 13.0 mph 38 % 0.0 in
14:43 33.3 °F 17.1 °F 1012.8 in SSW 16.7 mph 16.7 mph 38 % 0.0 in
14:48 33.4 °F 17.2 °F 1012.8 in South 11.1 mph 11.1 mph 38 % 0.0 in
14:53 33.6 °F 17.3 °F 1012.8 in SSW 15.8 mph 15.8 mph 38 % 0.0 in
14:58 33.3 °F 17.1 °F 1012.8 in SW 11.1 mph 11.1 mph 38 % 0.0 in
15:03 33.3 °F 17.1 °F 1012.8 in SW 10.8 mph 10.8 mph 38 % 0.0 in
15:08 33.1 °F 16.9 °F 1012.8 in SW 16.4 mph 16.4 mph 38 % 0.0 in
15:13 33.6 °F 17.3 °F 1012.8 in SW 13.0 mph 13.0 mph 38 % 0.0 in
15:18 33.8 °F 17.1 °F 1012.8 in SSW 11.1 mph 11.1 mph 37 % 0.0 in
15:23 33.9 °F 17.2 °F 1012.8 in SW 7.4 mph 7.4 mph 37 % 0.0 in
15:28 33.7 °F 17.0 °F 1012.8 in SSE 16.7 mph 16.7 mph 37 % 0.0 in
15:33 33.9 °F 17.2 °F 1012.8 in South 13.0 mph 13.0 mph 37 % 0.0 in
15:38 33.8 °F 17.1 °F 1012.8 in SW 16.7 mph 16.7 mph 37 % 0.0 in
15:43 33.9 °F 17.2 °F 1012.8 in WSW 9.7 mph 9.7 mph 37 % 0.0 in
15:48 34.5 °F 17.7 °F 1013.8 in WSW 9.3 mph 9.3 mph 37 % 0.0 in
15:53 34.3 °F 17.5 °F 1013.8 in SW 16.1 mph 16.1 mph 37 % 0.0 in
15:58 33.6 °F 16.9 °F 1013.8 in SW 9.5 mph 9.5 mph 37 % 0.0 in
16:03 33.6 °F 16.9 °F 1012.8 in South 13.0 mph 13.0 mph 37 % 0.0 in
16:08 34.0 °F 17.3 °F 1012.8 in SSW 9.3 mph 9.3 mph 37 % 0.0 in
16:13 33.7 °F 17.0 °F 1012.8 in South 13.0 mph 13.0 mph 37 % 0.0 in
16:14 33.6 °F 16.9 °F 1013.8 in West 13.0 mph 13.0 mph 37 % 0.0 in
16:19 33.9 °F 17.2 °F 1013.8 in WSW 10.3 mph 10.3 mph 37 % 0.0 in
16:24 33.6 °F 16.9 °F 1013.8 in SSW 9.3 mph 9.3 mph 37 % 0.0 in
16:29 33.3 °F 17.1 °F 1013.8 in South 9.5 mph 9.5 mph 38 % 0.0 in
16:34 32.9 °F 17.1 °F 1013.8 in SW 11.1 mph 11.1 mph 39 % 0.0 in
16:39 32.5 °F 16.8 °F 1013.8 in SW 11.1 mph 11.1 mph 39 % 0.0 in
16:44 32.3 °F 16.6 °F 1013.8 in South 13.0 mph 13.0 mph 39 % 0.0 in
16:49 31.9 °F 16.2 °F 1013.8 in SW 13.0 mph 13.0 mph 39 % 0.0 in
16:54 31.4 °F 15.8 °F 1013.8 in SW 13.0 mph 13.0 mph 39 % 0.0 in
16:59 31.5 °F 15.9 °F 1013.8 in WSW 9.3 mph 9.3 mph 39 % 0.0 in
17:04 31.2 °F 15.6 °F 1013.8 in SSW 9.3 mph 9.3 mph 39 % 0.0 in
17:09 30.9 °F 15.7 °F 1013.8 in SW 9.3 mph 9.3 mph 40 % 0.0 in
17:14 30.7 °F 15.9 °F 1013.8 in West 9.3 mph 9.3 mph 41 % 0.0 in
17:19 30.5 °F 15.8 °F 1013.8 in WSW 11.1 mph 11.1 mph 41 % 0.0 in
17:24 30.2 °F 15.5 °F 1013.8 in SW 9.3 mph 9.3 mph 41 % 0.0 in
17:29 30.0 °F 15.7 °F 1013.8 in WSW 14.8 mph 14.8 mph 42 % 0.0 in
17:34 29.7 °F 15.8 °F 1013.8 in SSW 11.1 mph 11.1 mph 43 % 0.0 in
17:39 29.6 °F 15.7 °F 1013.8 in SW 6.9 mph 6.9 mph 43 % 0.0 in
17:44 29.4 °F 15.5 °F 1013.8 in WSW 8.7 mph 8.7 mph 43 % 0.0 in
17:49 29.2 °F 15.7 °F 1013.8 in SW 9.3 mph 9.3 mph 44 % 0.0 in
17:54 29.0 °F 15.5 °F 1013.8 in SW 18.5 mph 18.5 mph 44 % 0.0 in
17:59 28.9 °F 16.1 °F 1013.8 in SW 9.5 mph 9.5 mph 46 % 0.0 in
18:04 28.6 °F 16.2 °F 1013.8 in SW 16.7 mph 16.7 mph 47 % 0.0 in
18:09 28.6 °F 16.2 °F 1013.8 in WSW 9.3 mph 9.3 mph 47 % 0.0 in
18:14 28.4 °F 16.3 °F 1013.8 in SW 9.3 mph 9.3 mph 48 % 0.0 in
18:19 28.4 °F 16.3 °F 1013.8 in WSW 11.1 mph 11.1 mph 48 % 0.0 in
18:24 28.3 °F 16.2 °F 1013.8 in SSW 7.4 mph 7.4 mph 48 % 0.0 in
18:29 28.3 °F 16.2 °F 1013.8 in SW 9.3 mph 9.3 mph 48 % 0.0 in
18:34 28.3 °F 16.2 °F 1013.8 in SW 7.4 mph 7.4 mph 48 % 0.0 in
18:39 28.3 °F 16.2 °F 1013.8 in WSW 14.8 mph 14.8 mph 48 % 0.0 in
18:44 28.3 °F 16.2 °F 1012.8 in SW 9.3 mph 9.3 mph 48 % 0.0 in
18:49 28.2 °F 16.2 °F 1012.8 in SW 11.1 mph 11.1 mph 48 % 0.0 in
18:54 28.3 °F 16.2 °F 1012.8 in West 5.6 mph 5.6 mph 48 % 0.0 in
18:59 28.2 °F 16.2 °F 1013.8 in SW 7.4 mph 7.4 mph 48 % 0.0 in
19:04 28.0 °F 15.9 °F 1013.8 in SW 9.3 mph 9.3 mph 48 % 0.0 in
19:09 28.0 °F 15.9 °F 1013.8 in WSW 9.7 mph 9.7 mph 48 % 0.0 in
19:14 28.0 °F 15.9 °F 1013.8 in SW 7.4 mph 7.4 mph 48 % 0.0 in
19:19 28.1 °F 16.1 °F 1013.8 in WSW 5.6 mph 5.6 mph 48 % 0.0 in
19:24 28.0 °F 15.6 °F 1013.8 in WSW 7.4 mph 7.4 mph 47 % 0.0 in
19:29 28.1 °F 15.7 °F 1013.8 in West 7.4 mph 7.4 mph 47 % 0.0 in
19:34 28.0 °F 15.6 °F 1013.8 in West 4.7 mph 4.7 mph 47 % 0.0 in
19:39 28.0 °F 15.6 °F 1013.8 in SW 5.3 mph 5.3 mph 47 % 0.0 in
19:44 28.0 °F 15.6 °F 1013.8 in West 4.2 mph 4.2 mph 47 % 0.0 in
19:49 27.8 °F 15.4 °F 1013.8 in West 3.7 mph 3.7 mph 47 % 0.0 in
19:54 27.8 °F 15.4 °F 1013.8 in SSW 3.9 mph 3.9 mph 47 % 0.0 in
19:59 27.7 °F 15.7 °F 1013.8 in SW 3.7 mph 3.7 mph 48 % 0.0 in
20:04 27.6 °F 15.6 °F 1013.8 in SW 3.7 mph 3.9 mph 48 % 0.0 in
20:06 27.6 °F 15.6 °F 1013.8 in WSW 3.7 mph 3.7 mph 48 % 0.0 in
20:11 27.6 °F 15.6 °F 1013.8 in WSW 3.7 mph 3.7 mph 48 % 0.0 in
20:16 27.6 °F 15.6 °F 1013.8 in SW 3.2 mph 3.2 mph 48 % 0.0 in
20:21 27.5 °F 15.5 °F 1013.8 in SW 3.7 mph 3.7 mph 48 % 0.0 in
20:26 27.4 °F 15.4 °F 1013.8 in WSW 3.7 mph 3.7 mph 48 % 0.0 in
20:31 27.4 °F 15.4 °F 1013.8 in SW 4.2 mph 4.2 mph 48 % 0.0 in
20:36 27.3 °F 15.3 °F 1013.8 in WSW 3.7 mph 3.7 mph 48 % 0.0 in
20:41 27.3 °F 15.3 °F 1013.8 in SW 3.7 mph 3.7 mph 48 % 0.0 in
20:46 27.1 °F 15.4 °F 1013.8 in South 2.3 mph 2.3 mph 49 % 0.0 in
20:51 27.0 °F 15.4 °F 1013.8 in WSW 5.6 mph 5.6 mph 49 % 0.0 in
20:56 26.9 °F 15.6 °F 1013.8 in SW 5.6 mph 5.6 mph 50 % 0.0 in
21:01 26.8 °F 15.5 °F 1013.8 in SW 5.6 mph 5.6 mph 50 % 0.0 in
21:06 26.7 °F 15.7 °F 1013.8 in WSW 5.6 mph 5.6 mph 51 % 0.0 in
21:11 26.6 °F 15.6 °F 1013.8 in SW 3.7 mph 3.7 mph 51 % 0.0 in
21:16 26.4 °F 15.4 °F 1013.8 in SSW 5.6 mph 5.6 mph 51 % 0.0 in
21:21 26.3 °F 15.7 °F 1013.8 in SW 3.7 mph 3.7 mph 52 % 0.0 in
21:26 26.2 °F 15.6 °F 1013.8 in SW 7.4 mph 7.4 mph 52 % 0.0 in
21:31 26.1 °F 15.8 °F 1013.8 in SSW 5.3 mph 5.3 mph 53 % 0.0 in
21:36 26.0 °F 15.7 °F 1013.8 in SW 5.6 mph 5.6 mph 53 % 0.0 in
21:41 25.9 °F 15.6 °F 1013.8 in WSW 3.7 mph 3.7 mph 53 % 0.0 in
21:46 25.7 °F 15.4 °F 1013.8 in SW 6.1 mph 6.1 mph 53 % 0.0 in
21:51 25.5 °F 15.5 °F 1013.8 in WSW 7.4 mph 7.4 mph 54 % 0.0 in
21:56 25.5 °F 15.5 °F 1013.8 in WNW 7.4 mph 7.4 mph 54 % 0.0 in
22:01 25.4 °F 15.7 °F 1014.8 in SW 5.6 mph 5.6 mph 55 % 0.0 in
22:06 25.4 °F 15.7 °F 1014.8 in West 7.4 mph 7.4 mph 55 % 0.0 in
22:11 25.3 °F 15.6 °F 1014.8 in WSW 6.4 mph 6.4 mph 55 % 0.0 in
22:16 25.2 °F 15.5 °F 1014.8 in West 7.4 mph 7.4 mph 55 % 0.0 in
22:21 25.1 °F 15.4 °F 1014.8 in WSW 6.1 mph 6.1 mph 55 % 0.0 in
22:26 25.1 °F 15.4 °F 1014.8 in SW 5.6 mph 5.6 mph 55 % 0.0 in
22:31 25.0 °F 15.6 °F 1014.8 in SW 3.7 mph 3.7 mph 56 % 0.0 in
22:36 24.9 °F 15.5 °F 1014.8 in WSW 7.4 mph 7.4 mph 56 % 0.0 in
22:41 24.8 °F 15.7 °F 1014.8 in WSW 2.6 mph 2.6 mph 57 % 0.0 in
22:46 24.7 °F 15.6 °F 1014.8 in SW 4.2 mph 4.2 mph 57 % 0.0 in
22:51 24.7 °F 15.3 °F 1014.8 in West 5.3 mph 5.3 mph 56 % 0.0 in
22:56 24.6 °F 15.2 °F 1014.8 in SW 6.1 mph 6.1 mph 56 % 0.0 in
23:01 24.6 °F 15.2 °F 1014.8 in SW 3.9 mph 3.9 mph 56 % 0.0 in
23:06 24.5 °F 15.4 °F 1014.8 in SW 3.7 mph 3.7 mph 57 % 0.0 in
23:11 24.4 °F 15.1 °F 1014.8 in WSW 3.7 mph 3.7 mph 56 % 0.0 in
23:16 24.4 °F 15.1 °F 1015.8 in West 5.8 mph 5.8 mph 56 % 0.0 in
23:21 24.4 °F 15.1 °F 1015.8 in WSW 4.2 mph 4.2 mph 56 % 0.0 in
23:26 24.3 °F 14.9 °F 1015.8 in West 3.7 mph 3.7 mph 56 % 0.0 in
23:31 24.2 °F 15.2 °F 1015.8 in WSW 3.7 mph 3.7 mph 57 % 0.0 in
23:36 24.1 °F 15.1 °F 1015.8 in West 3.5 mph 3.5 mph 57 % 0.0 in
23:41 24.1 °F 15.1 °F 1015.8 in WSW 2.3 mph 2.3 mph 57 % 0.0 in
23:46 24.1 °F 15.1 °F 1015.8 in West 2.3 mph 2.3 mph 57 % 0.0 in
23:51 24.1 °F 14.8 °F 1015.8 in West 3.7 mph 3.7 mph 56 % 0.0 in
23:56 24.1 °F 14.8 °F 1015.8 in West 3.7 mph 3.7 mph 56 % 0.0 in
Meteo Sesrovires
Elogis d' Weather Underground - 1.5 mb

Guio original per  Jim McMurry - jmcmurry@mwt.net Adaptat per a la plantilla per  Wim van der Kuil - Leuven-Template.eu

Trobareu la nostra informacio del temps tambe a:

Weather Underground

AWEKAS